Time;durP1;ratioP1;P1;durP2;ratioP2;P2;SDS_P1;SDS_P2;PMS_P1;PMS_P2;Temp;Humidity;BMP_temperature;BMP_pressure;BME280_temperature;BME280_humidity;BME280_pressure;Samples;Min_cycle;Max_cycle;Signal;HPM_P1;HPM_P2
2021/03/07 00:02:08;;;;;;;4.00;2.35;;;;;;;18.50;49.33;103096.34;5074895;28;20159;-73
2021/03/07 00:04:34;;;;;;;1.77;1.20;;;;;;;18.48;49.33;103101.53;5074794;28;20378;-73
2021/03/07 00:06:59;;;;;;;2.72;1.58;;;;;;;18.47;49.41;103097.13;5056789;28;20029;-73
2021/03/07 00:09:25;;;;;;;2.83;1.23;;;;;;;18.42;49.44;103077.78;5074869;28;20031;-74
2021/03/07 00:11:50;;;;;;;2.47;1.33;;;;;;;18.48;49.40;103084.91;5040823;28;20029;-73
2021/03/07 00:14:15;;;;;;;2.92;1.40;;;;;;;18.45;49.27;103083.09;5048676;28;20078;-74
2021/03/07 00:16:41;;;;;;;2.33;1.30;;;;;;;18.47;49.33;103091.88;5040108;28;20050;-74
2021/03/07 00:19:06;;;;;;;3.90;1.85;;;;;;;18.43;49.20;103076.06;5075271;28;20036;-73
2021/03/07 00:21:31;;;;;;;2.63;1.67;;;;;;;18.40;49.05;103068.97;5023891;28;20039;-74
2021/03/07 00:23:57;;;;;;;2.53;1.50;;;;;;;18.45;49.18;103077.84;5040895;28;20033;-73
2021/03/07 00:26:22;;;;;;;2.13;1.40;;;;;;;18.44;49.24;103083.03;5040058;28;20032;-73
2021/03/07 00:28:48;;;;;;;2.22;1.58;;;;;;;18.45;49.20;103074.34;5057149;28;20029;-73
2021/03/07 00:31:13;;;;;;;2.28;1.35;;;;;;;18.41;49.29;103069.88;5056496;28;20378;-73
2021/03/07 00:33:38;;;;;;;2.42;1.50;;;;;;;18.44;49.39;103073.44;5073422;28;20489;-73
2021/03/07 00:36:04;;;;;;;2.30;1.50;;;;;;;18.44;49.08;103070.81;5074025;28;20036;-73
2021/03/07 00:38:29;;;;;;;2.28;1.50;;;;;;;18.37;49.25;103060.13;5040110;28;20034;-73
2021/03/07 00:40:54;;;;;;;3.67;1.80;;;;;;;18.37;49.17;103058.41;5056514;28;20036;-73
2021/03/07 00:43:20;;;;;;;2.30;1.83;;;;;;;18.38;49.00;103056.66;5056505;28;20032;-73
2021/03/07 00:45:46;;;;;;;3.58;1.67;;;;;;;18.41;48.96;103062.91;5056842;28;20063;-73
2021/03/07 00:48:11;;;;;;;2.72;1.48;;;;;;;18.41;49.14;103060.28;5056568;28;20493;-73
2021/03/07 00:50:37;;;;;;;2.88;1.80;;;;;;;18.40;48.76;103060.22;5056350;28;20043;-73
2021/03/07 00:53:02;;;;;;;2.17;1.65;;;;;;;18.36;48.93;103051.38;5056723;28;20070;-73
2021/03/07 00:55:28;;;;;;;2.63;1.65;;;;;;;18.40;48.96;103061.13;5066263;28;20024;-73
2021/03/07 00:57:53;;;;;;;2.80;1.80;;;;;;;18.36;49.05;103053.09;5039725;28;20029;-73
2021/03/07 01:00:21;;;;;;;3.22;2.05;;;;;;;18.36;48.69;103055.72;5074127;28;20024;-74
2021/03/07 01:02:47;;;;;;;2.28;1.40;;;;;;;18.36;48.81;103050.50;5072619;28;20117;-73
2021/03/07 01:05:14;;;;;;;3.28;1.88;;;;;;;18.38;48.86;103057.56;5055945;28;20186;-74
2021/03/07 01:07:39;;;;;;;1.90;1.52;;;;;;;18.36;48.68;103058.34;5074184;28;20024;-76
2021/03/07 01:10:12;;;;;;;3.30;2.05;;;;;;;18.34;48.78;103053.06;5039486;28;20035;-74
2021/03/07 01:12:39;;;;;;;3.38;2.35;;;;;;;18.36;48.91;103055.72;5074049;28;20552;-74
2021/03/07 01:15:05;;;;;;;3.38;2.10;;;;;;;18.33;48.61;103050.38;5052762;28;20479;-74
2021/03/07 01:17:30;;;;;;;3.00;2.17;;;;;;;18.36;48.80;103047.88;5055540;28;20021;-74
2021/03/07 01:19:56;;;;;;;1.70;1.58;;;;;;;18.28;48.94;103031.03;5039649;28;20039;-74
2021/03/07 01:22:22;;;;;;;2.40;1.58;;;;;;;18.30;49.05;103034.59;5070604;28;20432;-74
2021/03/07 01:24:47;;;;;;;2.70;1.88;;;;;;;18.35;48.93;103046.97;5054743;28;20146;-74
2021/03/07 01:27:12;;;;;;;3.17;1.98;;;;;;;18.35;48.73;103040.84;5073773;28;20115;-74
2021/03/07 01:29:38;;;;;;;1.88;1.65;;;;;;;18.35;48.73;103041.75;5072822;28;20063;-73
2021/03/07 01:32:03;;;;;;;2.40;1.50;;;;;;;18.34;48.72;103032.09;5073671;28;20029;-73
2021/03/07 01:34:29;;;;;;;1.98;1.30;;;;;;;18.32;48.76;103027.66;5055867;28;20032;-73
2021/03/07 01:36:54;;;;;;;2.25;1.45;;;;;;;18.34;48.96;103029.47;5055771;28;20039;-74
2021/03/07 01:39:19;;;;;;;2.47;1.80;;;;;;;18.30;48.51;103017.16;5068535;28;20031;-73
2021/03/07 01:41:45;;;;;;;2.08;1.48;;;;;;;18.33;48.71;103024.19;5072351;28;20040;-74
2021/03/07 01:44:10;;;;;;;4.22;1.70;;;;;;;18.33;48.57;103011.09;5038539;28;20080;-74
2021/03/07 01:46:35;;;;;;;1.90;1.50;;;;;;;18.32;48.79;103012.81;5073066;28;20086;-73
2021/03/07 01:49:01;;;;;;;2.28;1.63;;;;;;;18.32;48.63;103007.59;5038774;28;20095;-73
2021/03/07 01:51:27;;;;;;;3.15;1.55;;;;;;;18.32;48.55;103009.31;5038905;28;20036;-73
2021/03/07 01:53:52;;;;;;;3.13;1.95;;;;;;;18.30;48.67;103001.44;5072329;28;20025;-73
2021/03/07 01:56:18;;;;;;;2.17;1.60;;;;;;;18.26;48.81;102994.31;5072177;28;20410;-74
2021/03/07 01:58:47;;;;;;;2.85;2.00;;;;;;;18.30;48.81;102996.22;5035337;28;20024;-74
2021/03/07 02:01:13;;;;;;;3.13;1.98;;;;;;;18.23;48.55;102980.25;5054541;28;20032;-74
2021/03/07 02:03:52;;;;;;;2.40;1.70;;;;;;;18.25;48.77;102982.06;5038621;28;20476;-73
2021/03/07 02:06:18;;;;;;;5.80;2.30;;;;;;;18.30;48.76;102985.72;5072258;28;20086;-73
2021/03/07 02:08:43;;;;;;;7.78;1.85;;;;;;;18.28;48.56;102976.03;5054972;28;20024;-73
2021/03/07 02:11:09;;;;;;;3.85;1.63;;;;;;;18.25;48.62;102970.72;5071866;28;20068;-73
2021/03/07 02:13:40;;;;;;;1.83;1.38;;;;;;;18.26;48.86;102970.75;5055104;28;20057;-74
2021/03/07 02:16:18;;;;;;;2.28;1.75;;;;;;;18.27;48.72;102967.28;5037602;28;20123;-73
2021/03/07 02:18:46;;;;;;;4.53;1.50;;;;;;;18.24;48.86;102959.34;5060219;28;20063;-74
2021/03/07 02:21:36;;;;;;;2.17;1.73;;;;;;;18.28;48.58;102965.56;5073197;28;20025;-74
2021/03/07 02:24:10;;;;;;;2.53;1.83;;;;;;;18.25;48.44;102955.00;5063481;28;20016;-74
2021/03/07 02:26:40;;;;;;;2.47;1.77;;;;;;;18.25;48.74;102952.38;5030885;28;20107;-73
2021/03/07 02:29:08;;;;;;;3.25;2.42;;;;;;;18.20;48.75;102942.63;5054854;28;20024;-75
2021/03/07 02:31:37;;;;;;;2.50;1.80;;;;;;;18.22;48.64;102940.06;5052445;28;20043;-73
2021/03/07 02:34:44;;;;;;;2.38;1.50;;;;;;;18.27;48.74;102937.59;5070656;28;20498;-74
2021/03/07 02:37:12;;;;;;;2.22;1.70;;;;;;;18.29;48.45;102930.69;5067967;28;20063;-74
2021/03/07 02:39:40;;;;;;;2.17;1.60;;;;;;;18.35;48.11;102929.09;5072940;28;20020;-74
2021/03/07 02:42:10;;;;;;;2.25;1.50;;;;;;;18.34;48.27;102924.72;5072699;28;20382;-74
2021/03/07 02:44:40;;;;;;;2.00;1.50;;;;;;;18.36;48.35;102930.00;5071147;28;20040;-75
2021/03/07 02:47:06;;;;;;;3.03;1.73;;;;;;;18.46;48.26;102934.66;5054656;28;20016;-74
2021/03/07 02:49:33;;;;;;;1.83;1.58;;;;;;;18.45;48.28;102918.03;5072432;28;20025;-74
2021/03/07 02:52:02;;;;;;;2.45;1.60;;;;;;;18.49;48.40;102924.25;5072677;28;20111;-74
2021/03/07 02:54:28;;;;;;;2.28;1.52;;;;;;;18.49;48.30;102919.91;5054543;28;20016;-74
2021/03/07 02:56:55;;;;;;;1.65;1.35;;;;;;;18.54;48.29;102913.06;5057472;28;20067;-74
2021/03/07 02:59:22;;;;;;;1.95;1.38;;;;;;;18.57;48.41;102909.63;5054482;28;20490;-74
2021/03/07 03:01:56;;;;;;;2.30;1.67;;;;;;;18.56;48.24;102913.97;5072104;28;20471;-74
2021/03/07 03:04:22;;;;;;;1.95;1.25;;;;;;;18.60;48.38;102908.88;5066769;28;20470;-74
2021/03/07 03:06:48;;;;;;;1.70;1.48;;;;;;;18.63;48.11;102904.59;5072531;28;20028;-74
2021/03/07 03:09:15;;;;;;;2.40;1.33;;;;;;;18.62;48.45;102896.69;5054306;28;20016;-74
2021/03/07 03:11:41;;;;;;;2.53;1.67;;;;;;;18.63;48.48;102904.59;5068401;28;20049;-74
2021/03/07 03:14:09;;;;;;;2.60;1.77;;;;;;;18.67;48.42;102906.47;5054335;28;20548;-74
2021/03/07 03:16:36;;;;;;;1.80;1.20;;;;;;;18.67;48.14;102903.84;5071870;28;20044;-74
2021/03/07 03:19:06;;;;;;;1.23;1.05;;;;;;;18.63;48.51;102903.72;5072303;28;20108;-74
2021/03/07 03:21:32;;;;;;;2.63;1.30;;;;;;;18.67;48.45;102909.09;5069638;28;20064;-74
2021/03/07 03:23:58;;;;;;;2.55;1.83;;;;;;;18.71;48.18;102908.31;5071818;28;20513;-74
2021/03/07 03:26:24;;;;;;;1.63;1.35;;;;;;;18.67;48.32;102895.09;5038929;28;20433;-74
2021/03/07 03:28:51;;;;;;;1.83;1.45;;;;;;;18.68;48.51;102894.25;5071928;28;20056;-74
2021/03/07 03:31:17;;;;;;;1.70;1.33;;;;;;;18.67;48.39;102900.34;5054048;28;20027;-74
2021/03/07 03:33:42;;;;;;;1.90;1.25;;;;;;;18.64;48.58;102895.00;5054251;28;20569;-74
2021/03/07 03:36:08;;;;;;;1.58;1.10;;;;;;;18.63;48.59;102893.22;5067864;28;20067;-74
2021/03/07 03:38:40;;;;;;;2.40;1.35;;;;;;;18.55;48.52;102883.41;5070607;28;20438;-74
2021/03/07 03:41:08;;;;;;;2.08;1.38;;;;;;;18.56;48.68;102889.53;5054399;28;20021;-74
2021/03/07 03:43:35;;;;;;;2.67;1.48;;;;;;;18.56;48.82;102894.78;5054743;28;20025;-74
2021/03/07 03:46:02;;;;;;;1.63;1.20;;;;;;;18.50;48.72;102886.75;5074200;28;20095;-74
2021/03/07 03:48:32;;;;;;;2.33;1.23;;;;;;;18.52;48.76;102885.94;5057512;28;20033;-74
2021/03/07 03:50:59;;;;;;;1.83;1.48;;;;;;;18.49;48.78;102874.47;5075312;28;20028;-74
2021/03/07 03:53:25;;;;;;;1.90;1.40;;;;;;;18.48;48.53;102877.94;5073372;28;20094;-74
2021/03/07 03:55:53;;;;;;;2.17;1.05;;;;;;;18.46;48.61;102870.03;5057732;28;20031;-74
2021/03/07 03:58:22;;;;;;;2.10;1.50;;;;;;;18.50;48.44;102886.75;5072468;28;20025;-74
2021/03/07 04:00:49;;;;;;;2.10;1.30;;;;;;;18.44;48.80;102876.06;5056900;28;20099;-74
2021/03/07 04:03:16;;;;;;;1.90;1.50;;;;;;;18.45;48.69;102886.59;5073838;28;20119;-74
2021/03/07 04:05:47;;;;;;;2.03;1.20;;;;;;;18.46;48.42;102888.38;5073879;28;20028;-74
2021/03/07 04:08:14;;;;;;;1.60;1.02;;;;;;;18.43;48.62;102880.47;5055283;28;20036;-75
2021/03/07 04:10:44;;;;;;;2.20;1.35;;;;;;;18.43;48.36;102883.06;5057173;28;20020;-74
2021/03/07 04:13:14;;;;;;;1.88;1.33;;;;;;;18.40;48.52;102872.50;5074167;28;20052;-74
2021/03/07 04:15:41;;;;;;;2.25;1.20;;;;;;;18.38;48.56;102874.19;5057049;28;20020;-74
2021/03/07 04:18:08;;;;;;;1.48;1.08;;;;;;;18.42;48.64;102883.91;5056458;28;20444;-74
2021/03/07 04:20:34;;;;;;;1.48;1.10;;;;;;;18.36;48.33;102872.38;5075271;28;20028;-74
2021/03/07 04:22:59;;;;;;;1.77;1.20;;;;;;;18.38;48.57;102876.81;5075022;28;20024;-74
2021/03/07 04:25:25;;;;;;;1.55;1.10;;;;;;;18.38;48.56;102876.81;5069233;28;20032;-74
2021/03/07 04:27:51;;;;;;;3.15;1.15;;;;;;;18.34;48.31;102872.31;5056662;28;20073;-74
2021/03/07 04:30:18;;;;;;;1.60;1.15;;;;;;;18.38;48.64;102876.81;5039781;28;20587;-74
2021/03/07 04:32:44;;;;;;;2.15;1.63;;;;;;;18.36;48.60;102877.59;5074681;28;20039;-74
2021/03/07 04:35:12;;;;;;;2.05;1.20;;;;;;;18.30;48.56;102862.63;5074565;28;20378;-74
2021/03/07 04:37:38;;;;;;;1.75;1.10;;;;;;;18.35;48.55;102875.84;5073952;28;20039;-74
2021/03/07 04:40:04;;;;;;;1.40;1.10;;;;;;;18.34;48.39;102869.69;5056885;28;20107;-74
2021/03/07 04:42:29;;;;;;;1.77;1.20;;;;;;;18.35;48.42;102876.72;5074658;28;20124;-74
2021/03/07 04:44:54;;;;;;;1.55;1.08;;;;;;;18.33;48.44;102867.94;5053153;28;20466;-74
2021/03/07 04:47:20;;;;;;;1.90;1.30;;;;;;;18.31;48.55;102864.38;5054489;28;20051;-74
2021/03/07 04:49:45;;;;;;;2.28;1.10;;;;;;;18.32;48.58;102867.88;5048217;28;20028;-73
2021/03/07 04:52:10;;;;;;;2.20;1.33;;;;;;;18.31;48.21;102869.59;5053359;28;20075;-73
2021/03/07 04:54:36;;;;;;;1.30;1.05;;;;;;;18.33;48.51;102872.28;5052910;28;20112;-73
2021/03/07 04:57:03;;;;;;;2.20;1.00;;;;;;;18.32;48.66;102866.16;5052247;28;20052;-73
2021/03/07 04:59:29;;;;;;;1.70;1.17;;;;;;;18.30;48.43;102862.63;5051799;28;20033;-74
2021/03/07 05:01:55;;;;;;;1.63;1.27;;;;;;;18.26;48.25;102854.63;5053168;28;20443;-74
2021/03/07 05:04:20;;;;;;;1.50;0.90;;;;;;;18.23;48.29;102850.19;5054333;28;20025;-74
2021/03/07 05:06:45;;;;;;;1.27;0.90;;;;;;;18.30;48.37;102861.75;5054380;28;20529;-74
2021/03/07 05:09:11;;;;;;;1.77;1.10;;;;;;;18.28;48.59;102859.06;5045581;28;20045;-74
2021/03/07 05:11:37;;;;;;;1.73;1.17;;;;;;;18.30;48.11;102856.50;5042551;28;20037;-73
2021/03/07 05:14:03;;;;;;;2.15;1.23;;;;;;;18.24;48.42;102854.59;5051198;28;20047;-73
2021/03/07 05:16:29;;;;;;;2.30;1.38;;;;;;;18.25;48.21;102848.50;5053715;28;20029;-73
2021/03/07 05:18:55;;;;;;;1.27;0.90;;;;;;;18.21;48.30;102844.00;5046289;28;20095;-73
2021/03/07 05:21:21;;;;;;;2.05;1.40;;;;;;;18.24;48.01;102845.84;5052553;28;20053;-73
2021/03/07 05:23:46;;;;;;;1.42;1.08;;;;;;;18.24;48.20;102836.25;5052431;28;20025;-73
2021/03/07 05:26:12;;;;;;;1.88;1.30;;;;;;;18.24;48.05;102835.38;5052541;28;20390;-74
2021/03/07 05:28:37;;;;;;;2.17;1.00;;;;;;;18.18;48.21;102829.09;5053412;28;20387;-74
2021/03/07 05:31:03;;;;;;;1.90;1.10;;;;;;;18.21;48.23;102837.03;5052286;28;20064;-74
2021/03/07 05:33:29;;;;;;;1.17;0.90;;;;;;;18.17;48.18;102832.59;5035581;28;20024;-74
2021/03/07 05:35:55;;;;;;;1.65;1.08;;;;;;;18.23;48.27;102834.47;5052626;28;20037;-74
2021/03/07 05:38:21;;;;;;;7.70;1.52;;;;;;;18.23;47.70;102830.97;5031987;28;20029;-74
2021/03/07 05:40:46;;;;;;;1.50;0.95;;;;;;;18.15;48.05;102826.41;5033474;28;20127;-74
2021/03/07 05:43:12;;;;;;;2.97;0.93;;;;;;;18.21;48.11;102828.31;5051731;28;20174;-74
2021/03/07 05:45:37;;;;;;;1.65;1.08;;;;;;;18.15;48.13;102821.19;5052494;28;20064;-74
2021/03/07 05:48:03;;;;;;;1.45;0.88;;;;;;;18.16;48.07;102819.44;5035319;28;20029;-74
2021/03/07 05:50:28;;;;;;;1.38;1.05;;;;;;;18.18;48.09;102821.25;5053323;28;20048;-75
2021/03/07 05:52:57;;;;;;;1.65;1.00;;;;;;;18.19;48.08;102817.78;5053605;28;20025;-74
2021/03/07 05:55:26;;;;;;;1.25;1.08;;;;;;;18.16;47.93;102820.34;5053293;28;20025;-74
2021/03/07 05:57:51;;;;;;;1.42;1.17;;;;;;;18.16;47.67;102827.31;5051850;28;20033;-74
2021/03/07 06:00:20;;;;;;;1.10;0.85;;;;;;;18.07;47.97;102811.31;5052554;28;20036;-74
2021/03/07 06:02:46;;;;;;;1.75;1.00;;;;;;;18.11;47.94;102818.44;5035057;28;20056;-74
2021/03/07 06:05:13;;;;;;;1.67;0.85;;;;;;;18.16;47.94;102811.59;5053044;28;20433;-73
2021/03/07 06:07:39;;;;;;;1.75;1.20;;;;;;;18.28;47.72;102821.53;5050405;28;20487;-74
2021/03/07 06:10:16;;;;;;;2.03;1.30;;;;;;;18.33;47.89;102812.03;5041310;28;20037;-74
2021/03/07 06:12:54;;;;;;;5.10;0.90;;;;;;;18.36;47.81;102814.75;5041188;28;20162;-74
2021/03/07 06:15:19;;;;;;;2.72;1.00;;;;;;;18.35;47.86;102812.97;5045081;28;20497;-74
2021/03/07 06:17:47;;;;;;;1.45;0.60;;;;;;;18.38;47.64;102803.47;5035170;28;20025;-74
2021/03/07 06:20:14;;;;;;;1.98;0.95;;;;;;;18.44;47.73;102807.97;5051780;28;20059;-74
2021/03/07 06:22:50;;;;;;;1.58;1.02;;;;;;;18.44;47.74;102807.97;5054183;28;20192;-73
2021/03/07 06:25:15;;;;;;;1.00;0.70;;;;;;;18.42;47.75;102797.47;5057156;28;20041;-73
2021/03/07 06:27:41;;;;;;;1.80;1.05;;;;;;;18.46;47.64;102795.78;5050853;28;20025;-73
2021/03/07 06:30:11;;;;;;;1.48;0.90;;;;;;;18.51;47.54;102808.19;5051188;28;20469;-73
2021/03/07 06:32:41;;;;;;;1.52;0.93;;;;;;;18.50;47.75;102806.41;5052305;28;20078;-74
2021/03/07 06:35:10;;;;;;;1.80;1.15;;;;;;;18.48;47.58;102791.50;5046702;28;20029;-74
2021/03/07 06:38:04;;;;;;;0.60;0.60;;;;;;;18.57;47.80;102800.47;5048145;28;20035;-73
2021/03/07 06:40:33;;;;;;;1.92;0.73;;;;;;;18.56;47.56;102787.34;5048939;28;20123;-73
2021/03/07 06:43:03;;;;;;;1.75;1.13;;;;;;;18.56;47.66;102798.69;5046068;28;20027;-74
2021/03/07 06:45:40;;;;;;;1.40;0.93;;;;;;;18.63;47.49;102789.31;5059748;28;20047;-74
2021/03/07 06:48:07;;;;;;;1.17;0.75;;;;;;;18.63;47.49;102786.69;5053648;28;20023;-74
2021/03/07 06:50:32;;;;;;;1.38;0.77;;;;;;;18.65;47.41;102789.34;5071114;28;20056;-79
2021/03/07 06:52:59;;;;;;;0.93;0.70;;;;;;;18.72;47.26;102791.25;5040678;28;20063;-78
2021/03/07 06:55:26;;;;;;;0.80;0.65;;;;;;;18.75;47.22;102796.59;5076060;28;20467;-80
2021/03/07 06:57:53;;;;;;;3.58;1.17;;;;;;;18.82;47.18;102798.53;5055006;28;20029;-80
2021/03/07 07:00:39;;;;;;;3.78;1.48;;;;;;;18.84;47.23;102799.41;5055048;28;20028;-73
2021/03/07 07:03:10;;;;;;;3.65;1.88;;;;;;;18.85;47.70;102791.59;5052893;28;20039;-71
2021/03/07 07:05:41;;;;;;;5.60;2.03;;;;;;;18.95;47.58;102802.31;5051713;28;20443;-72
2021/03/07 07:08:07;;;;;;;3.60;1.88;;;;;;;18.84;48.16;102791.56;5054678;28;20462;-78
2021/03/07 07:10:53;;;;;;;5.60;1.88;;;;;;;18.89;48.37;102800.44;5056686;28;20082;-79
2021/03/07 07:13:19;;;;;;;4.13;2.25;;;;;;;18.89;48.42;102798.69;5071393;28;20025;-72
2021/03/07 07:16:03;;;;;;;8.45;2.70;;;;;;;18.90;48.57;102789.09;5057096;28;20028;-72
2021/03/07 07:18:29;;;;;;;;;;;;;;;18.87;48.70;102791.63;5042951;28;20029;-72
2021/03/07 07:20:56;;;;;;;6.30;2.85;;;;;;;18.82;48.90;102791.56;5055863;28;19926;-73
2021/03/07 07:23:22;;;;;;;7.13;2.47;;;;;;;18.85;48.49;102786.34;5050968;28;20377;-73
2021/03/07 07:25:47;;;;;;;4.47;1.98;;;;;;;18.86;48.88;102780.25;5075419;28;20089;-74
2021/03/07 07:28:14;;;;;;;7.55;2.10;;;;;;;18.87;48.65;102779.41;5045897;28;20040;-73
2021/03/07 07:30:40;;;;;;;7.40;2.17;;;;;;;18.91;48.67;102788.25;5075574;28;20496;-73
2021/03/07 07:33:11;;;;;;;3.72;1.90;;;;;;;18.92;48.71;102796.16;5075208;28;20033;-74
2021/03/07 07:35:40;;;;;;;5.82;2.47;;;;;;;18.97;48.51;102795.34;5057601;28;20048;-74
2021/03/07 07:38:06;;;;;;;6.15;3.25;;;;;;;18.89;48.52;102784.69;5057542;28;20079;-75
2021/03/07 07:40:35;;;;;;;5.65;2.17;;;;;;;18.82;48.52;102775.81;5069377;28;20418;-75
2021/03/07 07:43:01;;;;;;;3.47;1.90;;;;;;;18.97;48.41;102795.34;5072496;28;20472;-73
2021/03/07 07:45:26;;;;;;;5.28;1.75;;;;;;;18.98;48.59;102791.88;5075026;28;20044;-73
2021/03/07 07:47:53;;;;;;;3.30;1.90;;;;;;;18.91;48.39;102785.63;5075064;28;20383;-73
2021/03/07 07:50:39;;;;;;;4.20;1.90;;;;;;;18.94;48.41;102790.06;5057266;28;20032;-73
2021/03/07 07:53:06;;;;;;;6.60;1.70;;;;;;;18.95;48.29;102787.47;5056673;28;20182;-73
2021/03/07 07:55:45;;;;;;;5.10;1.70;;;;;;;18.96;48.30;102791.84;5074416;28;20081;-73
2021/03/07 07:58:31;;;;;;;4.30;1.85;;;;;;;18.94;48.44;102779.56;5074615;28;20033;-73
2021/03/07 08:00:56;;;;;;;3.90;2.03;;;;;;;18.98;48.27;102790.16;5052206;28;20052;-73
2021/03/07 08:03:35;;;;;;;5.18;2.55;;;;;;;19.04;48.37;102789.44;5057226;28;20498;-73
2021/03/07 08:06:05;;;;;;;4.00;2.05;;;;;;;19.00;48.32;102790.19;5072074;28;20028;-73
2021/03/07 08:08:33;;;;;;;3.90;1.70;;;;;;;18.92;48.56;102775.19;5074885;28;20103;-75
2021/03/07 08:10:59;;;;;;;5.18;2.00;;;;;;;19.06;47.97;102791.25;5056681;28;20032;-73
2021/03/07 08:13:27;;;;;;;4.40;1.67;;;;;;;19.03;48.03;102793.78;5067151;28;20037;-73
2021/03/07 08:16:00;;;;;;;3.17;1.58;;;;;;;19.02;48.13;102794.63;5074816;28;20063;-74
2021/03/07 08:19:01;;;;;;;2.80;1.52;;;;;;;19.05;47.96;102794.72;5056100;28;20489;-73
2021/03/07 08:21:26;;;;;;;2.97;1.40;;;;;;;19.04;48.06;102792.94;4993217;28;20125;-73
2021/03/07 08:24:07;;;;;;;3.22;1.48;;;;;;;19.06;48.08;102800.84;5023615;28;20119;-74
2021/03/07 08:26:44;;;;;;;2.78;1.55;;;;;;;19.10;47.89;102793.06;5056118;28;20386;-73
2021/03/07 08:29:37;;;;;;;2.80;1.70;;;;;;;19.10;47.79;102787.81;5073524;28;20025;-73
2021/03/07 08:32:32;;;;;;;2.00;1.40;;;;;;;19.07;47.87;102787.78;5071624;28;20479;-73
2021/03/07 08:35:10;;;;;;;3.40;1.15;;;;;;;19.11;47.89;102780.84;5069274;28;20101;-73
2021/03/07 08:37:35;;;;;;;1.92;1.20;;;;;;;19.14;47.74;102773.94;5074094;28;20017;-72
2021/03/07 08:40:31;;;;;;;1.90;1.35;;;;;;;19.14;47.91;102786.16;5039850;28;20032;-77
2021/03/07 08:43:23;;;;;;;2.83;1.20;;;;;;;19.16;48.00;102784.47;5064755;28;20036;-74
2021/03/07 08:46:08;;;;;;;3.78;1.83;;;;;;;19.19;47.81;102776.69;5065699;28;20636;-73
2021/03/07 08:48:34;;;;;;;2.75;1.30;;;;;;;19.21;47.66;102770.59;5070128;28;20017;-77
2021/03/07 08:51:00;;;;;;;2.90;1.27;;;;;;;19.19;47.81;102774.06;5052093;28;20394;-73
2021/03/07 08:53:39;;;;;;;3.72;1.60;;;;;;;19.16;47.96;102769.63;5054613;28;20021;-74
2021/03/07 08:56:06;;;;;;;2.50;1.45;;;;;;;19.17;47.76;102763.53;5048135;28;20039;-74
2021/03/07 08:58:31;;;;;;;5.68;1.42;;;;;;;19.19;47.81;102766.19;5053085;28;20113;-74
2021/03/07 09:00:58;;;;;;;2.67;1.30;;;;;;;19.15;47.54;102765.22;5054027;28;20142;-74
2021/03/07 09:03:25;;;;;;;2.95;1.38;;;;;;;19.17;47.76;102754.78;5072174;28;20052;-75
2021/03/07 09:05:51;;;;;;;2.92;1.35;;;;;;;19.21;47.48;102759.25;5039155;28;20195;-74
2021/03/07 09:08:25;;;;;;;2.70;1.40;;;;;;;19.22;47.88;102768.84;5073186;28;20113;-74
2021/03/07 09:10:53;;;;;;;1.40;1.20;;;;;;;19.16;47.78;102759.13;5072419;28;20085;-74
2021/03/07 09:13:24;;;;;;;2.17;1.08;;;;;;;19.25;47.83;102755.81;5072420;28;20028;-74
2021/03/07 09:15:51;;;;;;;3.70;1.75;;;;;;;19.19;48.04;102760.94;5068766;28;20035;-73
2021/03/07 09:18:18;;;;;;;4.20;1.75;;;;;;;19.18;47.78;102754.81;5072087;28;20029;-73
2021/03/07 09:20:53;;;;;;;2.28;1.45;;;;;;;19.17;47.88;102752.16;5052438;28;20030;-73
2021/03/07 09:23:39;;;;;;;1.13;0.90;;;;;;;19.25;47.96;102769.81;5072373;28;20032;-74
2021/03/07 09:26:13;;;;;;;2.20;1.23;;;;;;;19.23;48.19;102768.00;5068339;28;20035;-73
2021/03/07 09:28:40;;;;;;;1.90;1.08;;;;;;;19.24;48.01;102764.53;5071784;28;20099;-73
2021/03/07 09:31:12;;;;;;;3.13;1.40;;;;;;;19.30;47.78;102761.19;5072180;28;20063;-73
2021/03/07 09:33:38;;;;;;;2.22;1.40;;;;;;;19.25;48.20;102754.06;5071616;28;20031;-73
2021/03/07 09:36:05;;;;;;;2.85;1.30;;;;;;;19.26;48.17;102752.34;5050624;28;20020;-73
2021/03/07 09:38:59;;;;;;;1.70;0.98;;;;;;;19.30;48.08;102756.81;5071508;28;20522;-73
2021/03/07 09:41:28;;;;;;;1.23;0.88;;;;;;;19.30;48.16;102753.31;5069840;28;20533;-73
2021/03/07 09:43:54;;;;;;;2.30;1.23;;;;;;;19.29;48.16;102755.03;5069543;28;20090;-73
2021/03/07 09:46:24;;;;;;;3.38;1.00;;;;;;;19.32;47.96;102749.88;5065940;28;20488;-74
2021/03/07 09:48:54;;;;;;;1.85;0.98;;;;;;;19.31;47.94;102747.22;5048978;28;20082;-73
2021/03/07 09:51:20;;;;;;;2.10;1.30;;;;;;;19.27;48.41;102748.88;5070462;28;20024;-74
2021/03/07 09:53:46;;;;;;;1.45;0.90;;;;;;;19.27;48.18;102749.75;5017514;28;20407;-73
2021/03/07 09:56:23;;;;;;;1.60;1.00;;;;;;;19.31;48.19;102744.59;5048995;28;20029;-73
2021/03/07 09:58:48;;;;;;;2.58;1.05;;;;;;;19.26;48.15;102737.50;5050699;28;20028;-73
2021/03/07 10:01:13;;;;;;;1.42;1.00;;;;;;;19.33;48.33;102753.38;5032643;28;20501;-73
2021/03/07 10:03:39;;;;;;;1.42;0.82;;;;;;;19.26;48.05;102740.13;5069472;28;20125;-73
2021/03/07 10:06:15;;;;;;;1.42;0.88;;;;;;;19.36;48.13;102749.06;5050523;28;20032;-73
2021/03/07 10:08:41;;;;;;;1.35;1.00;;;;;;;19.34;48.20;102742.91;5052198;28;20020;-73
2021/03/07 10:11:21;;;;;;;2.15;1.15;;;;;;;19.33;47.94;102740.25;5049497;28;20115;-73
2021/03/07 10:14:01;;;;;;;1.33;0.82;;;;;;;19.36;48.10;102746.44;5070372;28;20771;-73
2021/03/07 10:16:29;;;;;;;1.25;0.85;;;;;;;19.31;48.22;102740.22;5067331;28;20148;-73
2021/03/07 10:19:05;;;;;;;1.10;0.82;;;;;;;19.38;47.82;102744.72;5053711;28;20024;-73
2021/03/07 10:21:32;;;;;;;1.30;0.70;;;;;;;19.38;48.06;102747.34;5067497;28;20024;-74
2021/03/07 10:24:08;;;;;;;1.60;0.80;;;;;;;19.36;48.42;102743.81;5053745;28;20028;-74
2021/03/07 10:26:36;;;;;;;0.90;0.60;;;;;;;19.34;48.19;102742.03;5053108;28;20025;-73
2021/03/07 10:29:21;;;;;;;2.08;0.98;;;;;;;19.31;48.45;102742.84;5067286;28;20040;-74
2021/03/07 10:32:20;;;;;;;1.17;0.90;;;;;;;19.16;48.67;102718.91;5068393;28;20509;-73
2021/03/07 10:34:47;;;;;;;1.35;0.82;;;;;;;19.19;48.85;102734.72;5007343;28;20068;-74
2021/03/07 10:37:39;;;;;;;1.02;0.77;;;;;;;19.21;48.68;102738.25;5049703;28;20035;-73
2021/03/07 10:40:07;;;;;;;2.13;1.00;;;;;;;19.13;49.07;102730.19;5050300;28;20028;-73
2021/03/07 10:42:44;;;;;;;1.10;0.73;;;;;;;19.16;48.76;102735.53;5066286;28;20066;-73
2021/03/07 10:45:20;;;;;;;1.33;0.90;;;;;;;19.15;49.11;102738.09;5052883;28;20098;-73
2021/03/07 10:48:04;;;;;;;2.08;1.30;;;;;;;19.10;48.81;102737.09;5049823;28;20112;-73
2021/03/07 10:50:31;;;;;;;2.28;1.20;;;;;;;19.08;48.99;102737.09;5067955;28;20028;-73
2021/03/07 10:52:57;;;;;;;1.17;0.80;;;;;;;19.07;48.97;102732.72;5037249;28;20028;-73
2021/03/07 10:55:23;;;;;;;1.10;0.80;;;;;;;19.10;48.83;102739.72;5069549;28;20036;-73
2021/03/07 10:57:48;;;;;;;1.55;0.98;;;;;;;19.11;48.74;102741.50;5070758;28;20105;-74
2021/03/07 11:00:14;;;;;;;1.80;1.10;;;;;;;19.20;48.60;102741.72;5056270;28;20033;-73
2021/03/07 11:02:42;;;;;;;1.38;0.93;;;;;;;19.17;48.74;102732.06;5072217;28;20459;-74
2021/03/07 11:05:08;;;;;;;1.45;0.90;;;;;;;19.19;48.59;102735.59;5074839;28;20385;-74
2021/03/07 11:07:33;;;;;;;1.50;1.17;;;;;;;19.32;48.27;102738.50;5041010;28;20074;-74
2021/03/07 11:09:58;;;;;;;3.35;1.00;;;;;;;19.34;48.24;102735.06;5050530;28;20028;-74
2021/03/07 11:12:24;;;;;;;2.42;1.20;;;;;;;19.34;48.30;102735.06;5073602;28;20040;-74
2021/03/07 11:14:49;;;;;;;0.90;0.70;;;;;;;19.34;48.35;102736.78;5053269;28;20040;-74
2021/03/07 11:17:14;;;;;;;1.65;0.90;;;;;;;19.35;48.33;102728.91;5048244;28;20028;-74
2021/03/07 11:19:40;;;;;;;1.60;0.98;;;;;;;19.42;48.10;102740.44;5040857;28;20028;-74
2021/03/07 11:22:05;;;;;;;1.98;0.90;;;;;;;19.36;48.31;102728.06;5062684;28;20060;-74
2021/03/07 11:24:31;;;;;;;1.50;0.73;;;;;;;19.45;48.54;102735.28;5064029;28;20116;-74
2021/03/07 11:26:56;;;;;;;1.17;0.85;;;;;;;19.33;48.16;102706.16;5072288;28;20028;-74
2021/03/07 11:29:22;;;;;;;1.83;1.13;;;;;;;19.46;48.08;102730.06;5039406;28;20482;-74
2021/03/07 11:31:47;;;;;;;1.17;0.70;;;;;;;19.44;48.26;102723.00;5075831;28;20028;-74
2021/03/07 11:34:13;;;;;;;1.20;0.80;;;;;;;19.43;48.05;102711.63;5041100;28;20028;-74